• Join FlightAware (Why Join?)
  • Login
  • US Flag 
07:40AM EST


 

Airport Tracker/Info


-or-


 

Live Flight TrackerFlight Track Log ✈ AWE801 ✈ 25-Apr-2013 ✈ SBGL / GIG - KCLT

Flight Track Log - Related Links

Times and Time Zones

All times are in EDT time to prevent confusion due to time zone crossing. See the AWE801 flight status page for this flight to view local times or setup timezone preferences in your user account.

Time Position Orientation Groundspeed Altitude Reporting Facility
EDT Latitude Longitude Course Direction KTS MPH feet Rate Location/Type
09:26PM -22.7470 -43.1640 44° Northeast 201 231 3,400  Level FlightAware
09:26PM -22.7330 -43.1480 47° Northeast 231 266 3,600 960 Climbing FlightAware
09:27PM -22.7290 -43.1330 74° East 242 278 3,900 1,800 Climbing FlightAware
09:27PM -22.7220 -43.0760 82° East 270 311 5,400 1,980 Climbing FlightAware
09:28PM -22.7200 -43.0530 85° East 274 315 6,100 2,700 Climbing FlightAware
09:28PM -22.7180 -43.0140 87° East 286 329 7,200 2,460 Climbing FlightAware
09:29PM -22.7160 -42.9780 87° East 287 330 8,400 2,700 Climbing FlightAware
09:29PM -22.7130 -42.9320 86° East 289 333 9,700 2,700 Climbing FlightAware
09:29PM -22.7060 -42.9090 72° East 297 342 10,200 1,320 Climbing FlightAware
09:30PM -22.6830 -42.8890 39° Northeast 318 366 10,600 1,200 Climbing FlightAware
09:30PM -22.6060 -42.9110 345° North 365 420 11,700 1,440 Climbing FlightAware
09:31PM -22.5460 -42.9580 324° Northwest 398 458 12,800 1,920 Climbing FlightAware
09:32PM -22.4740 -43.0050 329° Northwest 412 474 14,500 2,220 Climbing FlightAware
09:33PM -22.4070 -43.0470 330° Northwest 420 483 16,000 2,220 Climbing FlightAware
09:33PM -22.3390 -43.0900 330° Northwest 426 490 17,500 1,920 Climbing FlightAware
09:34PM -22.2640 -43.1360 330° Northwest 437 503 18,800 1,800 Climbing FlightAware
09:35PM -22.1910 -43.1820 330° Northwest 448 516 20,100 1,800 Climbing FlightAware
09:35PM -22.1190 -43.2270 330° Northwest 457 526 21,200 1,740 Climbing FlightAware
09:36PM -22.0750 -43.2540 330° Northwest 461 531 22,000 660 Climbing FlightAware
09:36PM -22.0000 -43.3020 329° Northwest 461 531 22,000  Level FlightAware
09:37PM -21.9540 -43.3330 328° Northwest 461 531 22,000  Level FlightAware
09:38PM -21.8910 -43.3730 329° Northwest 461 531 22,000  Level FlightAware
09:38PM -21.8290 -43.4130 329° Northwest 461 531 22,000  Level FlightAware
09:39PM -21.7670 -43.4530 329° Northwest 461 531 22,000  Level FlightAware
09:40PM -21.7050 -43.4940 328° Northwest 461 531 22,000 3,600 Level FlightAware
09:41PM -21.5050 -43.5880 336° Northwest 477 549 28,000 4,020 Climbing FlightAware
09:41PM -21.4150 -43.6110 347° North 479 551 29,100 1,560 Climbing FlightAware
09:42PM -21.3110 -43.6370 347° North 478 550 30,400 1,740 Climbing FlightAware
09:43PM -21.2480 -43.6520 347° North 476 548 31,300 1,740 Climbing FlightAware
09:43PM -21.1540 -43.6750 347° North 468 539 32,600 1,620 Climbing FlightAware
09:44PM -21.0560 -43.7000 347° North 460 529 33,900 900 Climbing FlightAware
09:45PM -20.9680 -43.7220 347° North 463 533 34,000 660 Climbing FlightAware
09:46PM -20.8830 -43.7430 347° North 455 524 34,800 660 Climbing FlightAware
09:46PM -20.7810 -43.7690 347° North 445 512 35,000 120 Climbing FlightAware
09:47PM -20.6940 -43.7910 347° North 442 509 35,000  Level FlightAware
09:48PM -20.6210 -43.8090 347° North 443 510 35,000  Level FlightAware
09:48PM -20.5330 -43.8300 347° North 447 514 35,000  Level FlightAware
09:49PM -20.4390 -43.8520 348° North 451 519 35,000  Level FlightAware
09:50PM -20.3600 -43.8710 347° North 453 521 35,000  Level FlightAware
09:51PM -20.2670 -43.8940 347° North 454 522 35,000  Level FlightAware
09:51PM -20.1840 -43.9160 346° North 454 522 35,000  Level FlightAware
09:52PM -20.1030 -43.9370 346° North 455 524 35,000  Level FlightAware
09:53PM -20.0090 -43.9590 348° North 454 522 35,000  Level FlightAware
09:53PM -19.9270 -43.9780 348° North 454 522 35,000  Level FlightAware
09:54PM -19.8330 -43.9970 349° North 454 522 35,000  Level FlightAware
09:55PM -19.7520 -44.0100 351° North 454 522 35,000  Level FlightAware
09:55PM -19.6670 -44.0230 352° North 452 520 35,000  Level FlightAware
09:56PM -19.5860 -44.0350 352° North 451 519 35,000  Level FlightAware
09:57PM -19.4970 -44.0530 349° North 449 517 35,000  Level FlightAware
09:57PM -19.4280 -44.0670 349° North 449 517 35,000  Level FlightAware
09:58PM -19.3590 -44.0810 349° North 449 517 35,000  Level FlightAware
09:59PM -19.2890 -44.0950 349° North 449 517 35,000  Level FlightAware
10:00PM -19.2030 -44.1130 349° North 449 517 35,000  Level FlightAware
10:00PM -19.1330 -44.1270 349° North 449 517 35,000  Level FlightAware
10:01PM -19.0640 -44.1420 348° North 449 517 35,000  Level FlightAware
10:02PM -18.9950 -44.1560 349° North 449 517 35,000  Level FlightAware
10:02PM -18.9250 -44.1700 349° North 449 517 35,000  Level FlightAware
10:03PM -18.8390 -44.1880 349° North 449 517 35,000  Level FlightAware
10:04PM -18.7690 -44.2020 349° North 449 517 35,000  Level FlightAware
10:04PM -18.7000 -44.2160 349° North 449 517 35,000  Level FlightAware
10:05PM -18.6310 -44.2310 348° North 449 517 35,000  Level FlightAware
10:06PM -18.5610 -44.2450 349° North 449 517 35,000  Level FlightAware
10:08PM -18.4014 -44.3538 327° Northwest  Level Estimated
10:09PM -18.3065 -44.4183 327° Northwest  Level Estimated
10:10PM -18.2117 -44.4827 327° Northwest  Level Estimated
10:11PM -18.1168 -44.5471 327° Northwest  Level Estimated
10:12PM -18.0218 -44.6114 327° Northwest  Level Estimated
10:13PM -17.9269 -44.6756 327° Northwest  Level Estimated
10:14PM -17.8319 -44.7398 327° Northwest  Level Estimated
10:15PM -17.7369 -44.8039 327° Northwest  Level Estimated
10:16PM -17.6420 -44.8679 327° Northwest  Level Estimated
10:17PM -17.5469 -44.9319 327° Northwest  Level Estimated
10:18PM -17.4519 -44.9958 327° Northwest  Level Estimated
10:19PM -17.3568 -45.0596 327° Northwest  Level Estimated
10:20PM -17.2617 -45.1233 327° Northwest  Level Estimated
10:21PM -17.1667 -45.1870 327° Northwest  Level Estimated
10:22PM -17.0715 -45.2507 327° Northwest  Level Estimated
10:23PM -16.9764 -45.3143 327° Northwest  Level Estimated
10:24PM -16.8812 -45.3778 327° Northwest  Level Estimated
10:25PM -16.7861 -45.4412 327° Northwest  Level Estimated
10:26PM -16.6908 -45.5046 327° Northwest  Level Estimated
10:27PM -16.5956 -45.5679 327° Northwest  Level Estimated
10:28PM -16.5004 -45.6311 328° Northwest  Level Estimated
10:29PM -16.4051 -45.6943 328° Northwest  Level Estimated
10:30PM -16.3099 -45.7574 328° Northwest  Level Estimated
10:31PM -16.2146 -45.8205 328° Northwest  Level Estimated
10:32PM -16.1192 -45.8835 328° Northwest  Level Estimated
10:33PM -16.0239 -45.9464 328° Northwest  Level Estimated
10:34PM -15.9285 -46.0093 328° Northwest  Level Estimated
10:35PM -15.8332 -46.0721 328° Northwest  Level Estimated
10:36PM -15.7378 -46.1349 328° Northwest  Level Estimated
10:37PM -15.6424 -46.1976 328° Northwest  Level Estimated
10:38PM -15.5470 -46.2602 328° Northwest  Level Estimated
10:39PM -15.4515 -46.3228 328° Northwest  Level Estimated
10:40PM -15.3561 -46.3853 328° Northwest  Level Estimated
10:41PM -15.2606 -46.4478 328° Northwest  Level Estimated
10:42PM -15.1651 -46.5102 328° Northwest  Level Estimated
10:43PM -15.0696 -46.5726 328° Northwest  Level Estimated
10:44PM -14.9740 -46.6349 328° Northwest  Level Estimated
10:45PM -14.8785 -46.6972 328° Northwest  Level Estimated
10:46PM -14.7829 -46.7593 328° Northwest  Level Estimated
10:47PM -14.6874 -46.8215 328° Northwest  Level Estimated
10:48PM -14.5918 -46.8836 328° Northwest  Level Estimated
10:49PM -14.4962 -46.9456 328° Northwest  Level Estimated
10:50PM -14.4005 -47.0076 328° Northwest  Level Estimated
10:51PM -14.3049 -47.0695 328° Northwest  Level Estimated
10:52PM -14.2092 -47.1314 328° Northwest  Level Estimated
10:53PM -14.1135 -47.1932 328° Northwest  Level Estimated
10:54PM -14.0178 -47.2550 328° Northwest  Level Estimated
10:55PM -13.9221 -47.3167 328° Northwest  Level Estimated
10:56PM -13.8264 -47.3783 328° Northwest  Level Estimated
10:57PM -13.7307 -47.4399 328° Northwest  Level Estimated
10:58PM -13.6349 -47.5015 328° Northwest  Level Estimated
10:59PM -13.5392 -47.5630 328° Northwest  Level Estimated
11:00PM -13.4434 -47.6245 328° Northwest  Level Estimated
11:01PM -13.3476 -47.6859 328° Northwest  Level Estimated
11:02PM -13.2518 -47.7472 328° Northwest  Level Estimated
11:03PM -13.1559 -47.8086 328° Northwest  Level Estimated
11:04PM -13.0601 -47.8698 328° Northwest  Level Estimated
11:05PM -12.9642 -47.9310 328° Northwest  Level Estimated
11:06PM -12.8684 -47.9922 328° Northwest  Level Estimated
11:07PM -12.7725 -48.0533 328° Northwest  Level Estimated
11:08PM -12.6766 -48.1144 328° Northwest  Level Estimated
11:09PM -12.5807 -48.1754 328° Northwest  Level Estimated
11:10PM -12.4847 -48.2364 328° Northwest  Level Estimated
11:11PM -12.3888 -48.2974 328° Northwest  Level Estimated
11:12PM -12.2928 -48.3583 328° Northwest  Level Estimated
11:13PM -12.1969 -48.4191 328° Northwest  Level Estimated
11:14PM -12.1009 -48.4799 328° Northwest  Level Estimated
11:15PM -12.0049 -48.5407 328° Northwest  Level Estimated
11:16PM -11.9089 -48.6014 328° Northwest  Level Estimated
11:17PM -11.8129 -48.6621 328° Northwest  Level Estimated
11:18PM -11.7169 -48.7228 328° Northwest  Level Estimated
11:19PM -11.6208 -48.7834 328° Northwest  Level Estimated
11:20PM -11.5247 -48.8439 328° Northwest  Level Estimated
11:21PM -11.4287 -48.9044 328° Northwest  Level Estimated
11:22PM -11.3326 -48.9649 328° Northwest  Level Estimated
11:22PM -9.0920 -46.6100 328° Northwest 460 529 35,000  Level FlightAware
11:23PM -11.2365 -49.0253 328° Northwest  Level Estimated
11:23PM -8.9870 -46.6360 346° North 460 529 35,000  Level FlightAware
11:23PM -8.9170 -46.6530 347° North 460 529 35,000  Level FlightAware
11:24PM -8.8460 -46.6710 346° North 460 529 35,000  Level FlightAware
11:25PM -8.7590 -46.6930 346° North 460 529 35,000  Level FlightAware
11:25PM -8.6880 -46.7110 346° North 460 529 35,000  Level FlightAware
11:26PM -8.6180 -46.7290 346° North 460 529 35,000  Level FlightAware
11:27PM -8.5480 -46.7460 346° North 460 529 35,000  Level FlightAware
11:27PM -8.4780 -46.7640 346° North 460 529 35,000  Level FlightAware
11:28PM -8.3900 -46.7860 346° North 460 529 35,000  Level FlightAware
11:29PM -8.3200 -46.8040 346° North 460 529 35,000  Level FlightAware
11:30PM -8.2500 -46.8220 346° North 460 529 35,000  Level FlightAware
11:30PM -8.1790 -46.8390 347° North 460 529 35,000  Level FlightAware
11:31PM -8.1090 -46.8570 346° North 460 529 35,000  Level FlightAware
11:32PM -8.0210 -46.8790 346° North 460 529 35,000  Level FlightAware
11:34PM -7.8644 -46.9877 325° Northwest  Level Estimated
11:35PM -7.7714 -47.0523 325° Northwest  Level Estimated
11:36PM -7.6783 -47.1168 326° Northwest  Level Estimated
11:37PM -7.5852 -47.1813 326° Northwest  Level Estimated
11:38PM -7.4922 -47.2458 326° Northwest  Level Estimated
11:39PM -7.3991 -47.3102 326° Northwest  Level Estimated
11:40PM -7.3060 -47.3746 326° Northwest  Level Estimated
11:41PM -7.2129 -47.4390 326° Northwest  Level Estimated
11:42PM -7.1198 -47.5033 326° Northwest  Level Estimated
11:43PM -7.0267 -47.5677 326° Northwest  Level Estimated
11:44PM -6.9335 -47.6320 326° Northwest  Level Estimated
11:45PM -6.8404 -47.6963 326° Northwest  Level Estimated
11:46PM -6.7473 -47.7605 326° Northwest  Level Estimated
11:47PM -6.6541 -47.8248 326° Northwest  Level Estimated
11:48PM -6.5610 -47.8890 326° Northwest  Level Estimated
11:49PM -6.4678 -47.9532 326° Northwest  Level Estimated
11:50PM -6.3746 -48.0173 326° Northwest  Level Estimated
11:51PM -6.2814 -48.0815 326° Northwest  Level Estimated
11:52PM -6.1883 -48.1456 326° Northwest  Level Estimated
11:53PM -6.0950 -48.2096 326° Northwest  Level Estimated
11:54PM -6.0018 -48.2737 326° Northwest  Level Estimated
11:55PM -5.9086 -48.3378 326° Northwest  Level Estimated
11:56PM -5.8154 -48.4018 326° Northwest  Level Estimated
11:57PM -5.7222 -48.4658 326° Northwest  Level Estimated
11:58PM -5.6289 -48.5298 326° Northwest  Level Estimated
11:59PM -5.5357 -48.5937 326° Northwest  Level Estimated
12:00AM -5.4425 -48.6577 326° Northwest  Level Estimated
12:01AM -5.3492 -48.7216 326° Northwest  Level Estimated
12:02AM -5.2559 -48.7855 326° Northwest  Level Estimated
12:03AM -5.1627 -48.8494 326° Northwest  Level Estimated
12:04AM -5.0694 -48.9132 326° Northwest  Level Estimated
12:05AM -4.9761 -48.9771 326° Northwest  Level Estimated
12:06AM -4.8828 -49.0409 326° Northwest  Level Estimated
12:07AM -4.7895 -49.1047 326° Northwest  Level Estimated
12:08AM -4.6962 -49.1685 326° Northwest  Level Estimated
12:09AM -4.6029 -49.2323 326° Northwest  Level Estimated
12:10AM -4.5096 -49.2961 326° Northwest  Level Estimated
12:11AM -4.4163 -49.3598 326° Northwest  Level Estimated
12:12AM -4.3230 -49.4235 326° Northwest  Level Estimated
12:13AM -4.2296 -49.4872 326° Northwest  Level Estimated
12:14AM -4.1363 -49.5509 326° Northwest  Level Estimated
12:15AM -4.0430 -49.6146 326° Northwest  Level Estimated
12:16AM -3.9496 -49.6783 326° Northwest  Level Estimated
12:17AM -3.8563 -49.7419 326° Northwest  Level Estimated
12:18AM -3.7629 -49.8056 326° Northwest  Level Estimated
12:19AM -3.6696 -49.8692 326° Northwest  Level Estimated
12:20AM -3.5762 -49.9328 326° Northwest  Level Estimated
12:21AM -3.4828 -49.9964 326° Northwest  Level Estimated
12:22AM -3.3895 -50.0600 326° Northwest  Level Estimated
12:23AM -3.2961 -50.1236 326° Northwest  Level Estimated
12:24AM -3.2027 -50.1871 326° Northwest  Level Estimated
12:25AM -3.1093 -50.2507 326° Northwest  Level Estimated
12:26AM -3.0159 -50.3142 326° Northwest  Level Estimated
12:27AM -2.9225 -50.3777 326° Northwest  Level Estimated
12:28AM -2.8291 -50.4412 326° Northwest  Level Estimated
12:29AM -2.7357 -50.5048 326° Northwest  Level Estimated
12:30AM -2.6423 -50.5683 326° Northwest  Level Estimated
12:31AM -2.5489 -50.6317 326° Northwest  Level Estimated
12:32AM -2.4555 -50.6952 326° Northwest  Level Estimated
12:33AM -2.3621 -50.7587 326° Northwest  Level Estimated
12:34AM -2.2687 -50.8222 326° Northwest  Level Estimated
12:35AM -2.1753 -50.8856 326° Northwest  Level Estimated
12:36AM -2.0819 -50.9491 326° Northwest  Level Estimated
12:37AM -1.9885 -51.0125 326° Northwest  Level Estimated
12:38AM -1.8950 -51.0759 326° Northwest  Level Estimated
12:39AM -1.8016 -51.1393 326° Northwest  Level Estimated
12:40AM -1.7082 -51.2028 326° Northwest  Level Estimated
12:41AM -1.6148 -51.2662 326° Northwest  Level Estimated
12:42AM -1.5213 -51.3296 326° Northwest  Level Estimated
12:43AM -1.4279 -51.3930 326° Northwest  Level Estimated
12:44AM -1.3345 -51.4564 326° Northwest  Level Estimated
12:45AM -1.2410 -51.5197 326° Northwest  Level Estimated
12:46AM -1.1476 -51.5831 326° Northwest  Level Estimated
12:47AM -1.0541 -51.6465 326° Northwest  Level Estimated
12:48AM -0.9607 -51.7099 326° Northwest  Level Estimated
12:49AM -0.8673 -51.7733 326° Northwest  Level Estimated
12:50AM -0.7738 -51.8366 326° Northwest  Level Estimated
12:51AM -0.6804 -51.9000 326° Northwest  Level Estimated
12:52AM -0.5869 -51.9634 326° Northwest  Level Estimated
12:53AM -0.4935 -52.0267 326° Northwest  Level Estimated
12:54AM -0.4000 -52.0901 326° Northwest  Level Estimated
12:55AM -0.3066 -52.1534 326° Northwest  Level Estimated
12:56AM -0.2131 -52.2168 326° Northwest  Level Estimated
12:57AM -0.1197 -52.2802 326° Northwest  Level Estimated
12:58AM -0.0262 -52.3435 326° Northwest  Level Estimated
12:59AM 0.0672 -52.4069 326° Northwest  Level Estimated
01:00AM 0.1607 -52.4702 326° Northwest  Level Estimated
01:01AM 0.2541 -52.5336 326° Northwest  Level Estimated
01:02AM 0.3476 -52.5970 326° Northwest  Level Estimated
01:03AM 0.4410 -52.6603 326° Northwest  Level Estimated
01:04AM 0.5345 -52.7237 326° Northwest  Level Estimated
01:05AM 0.6279 -52.7870 326° Northwest  Level Estimated
01:06AM 0.7214 -52.8504 326° Northwest  Level Estimated
01:07AM 0.8148 -52.9138 326° Northwest  Level Estimated
01:08AM 0.9083 -52.9771 326° Northwest  Level Estimated
01:09AM 1.0017 -53.0405 326° Northwest  Level Estimated
01:10AM 1.0951 -53.1039 326° Northwest  Level Estimated
01:11AM 1.1886 -53.1673 326° Northwest  Level Estimated
01:12AM 1.2820 -53.2307 326° Northwest  Level Estimated
01:13AM 1.3755 -53.2940 326° Northwest  Level Estimated
01:14AM 1.4689 -53.3574 326° Northwest  Level Estimated
01:15AM 1.5623 -53.4208 326° Northwest  Level Estimated
01:16AM 1.6558 -53.4843 326° Northwest  Level Estimated
01:17AM 1.7492 -53.5477 326° Northwest  Level Estimated
01:18AM 1.8426 -53.6111 326° Northwest  Level Estimated
01:19AM 1.9361 -53.6745 326° Northwest  Level Estimated
01:20AM 2.0295 -53.7379 326° Northwest  Level Estimated
01:21AM 2.1229 -53.8014 326° Northwest  Level Estimated
01:22AM 2.2163 -53.8648 326° Northwest  Level Estimated
01:23AM 2.3097 -53.9283 326° Northwest  Level Estimated
01:24AM 2.4031 -53.9917 326° Northwest  Level Estimated
01:25AM 2.4966 -54.0552 326° Northwest  Level Estimated
01:26AM 2.5900 -54.1187 326° Northwest  Level Estimated
01:27AM 2.6834 -54.1822 326° Northwest  Level Estimated
01:28AM 2.7768 -54.2457 326° Northwest  Level Estimated
01:29AM 2.8702 -54.3092 326° Northwest  Level Estimated
01:30AM 2.9636 -54.3727 326° Northwest  Level Estimated
01:31AM 3.0569 -54.4362 326° Northwest  Level Estimated
01:32AM 3.1503 -54.4998 326° Northwest  Level Estimated
01:33AM 3.2437 -54.5633 326° Northwest  Level Estimated
01:34AM 3.3371 -54.6269 326° Northwest  Level Estimated
01:35AM 3.4305 -54.6905 326° Northwest  Level Estimated
01:36AM 3.5238 -54.7541 326° Northwest  Level Estimated
01:37AM 3.6172 -54.8177 326° Northwest  Level Estimated
01:38AM 3.7106 -54.8813 326° Northwest  Level Estimated
01:39AM 3.8039 -54.9449 326° Northwest  Level Estimated
01:40AM 3.8973 -55.0086 326° Northwest  Level Estimated
01:41AM 3.9906 -55.0722 326° Northwest  Level Estimated
01:42AM 4.0840 -55.1359 326° Northwest  Level Estimated
01:43AM 4.1773 -55.1996 326° Northwest  Level Estimated
01:44AM 4.2706 -55.2633 326° Northwest  Level Estimated
01:45AM 4.3639 -55.3270 326° Northwest  Level Estimated
01:46AM 4.4573 -55.3907 326° Northwest  Level Estimated
01:47AM 4.5506 -55.4545 326° Northwest  Level Estimated
01:48AM 4.6439 -55.5183 326° Northwest  Level Estimated
01:49AM 4.7372 -55.5820 326° Northwest  Level Estimated
01:50AM 4.8305 -55.6458 326° Northwest  Level Estimated
01:51AM 4.9238 -55.7097 326° Northwest  Level Estimated
01:52AM 5.0171 -55.7735 326° Northwest  Level Estimated
01:53AM 5.1104 -55.8373 326° Northwest  Level Estimated
01:54AM 5.2036 -55.9012 326° Northwest  Level Estimated
01:55AM 5.2969 -55.9651 326° Northwest  Level Estimated
01:56AM 5.3902 -56.0290 326° Northwest  Level Estimated
01:57AM 5.4834 -56.0929 326° Northwest  Level Estimated
01:58AM 5.5767 -56.1569 326° Northwest  Level Estimated
01:59AM 5.6699 -56.2209 326° Northwest  Level Estimated
02:00AM 5.7631 -56.2849 326° Northwest  Level Estimated
02:01AM 5.8564 -56.3489 326° Northwest  Level Estimated
02:02AM 5.9496 -56.4129 326° Northwest  Level Estimated
02:03AM 6.0428 -56.4770 326° Northwest  Level Estimated
02:04AM 6.1360 -56.5410 326° Northwest  Level Estimated
02:05AM 6.2292 -56.6051 326° Northwest  Level Estimated
02:06AM 6.3224 -56.6693 326° Northwest  Level Estimated
02:07AM 6.4156 -56.7334 326° Northwest  Level Estimated
02:08AM 6.5087 -56.7976 326° Northwest  Level Estimated
02:09AM 6.6019 -56.8618 326° Northwest  Level Estimated
02:10AM 6.6950 -56.9260 326° Northwest  Level Estimated
02:11AM 6.7882 -56.9902 326° Northwest  Level Estimated
02:12AM 6.8813 -57.0545 326° Northwest  Level Estimated
02:13AM 6.9745 -57.1188 326° Northwest  Level Estimated
02:14AM 7.0676 -57.1831 326° Northwest  Level Estimated
02:15AM 7.1607 -57.2475 326° Northwest  Level Estimated
02:16AM 7.2538 -57.3118 326° Northwest  Level Estimated
02:17AM 7.3469 -57.3762 326° Northwest  Level Estimated
02:18AM 7.4400 -57.4406 326° Northwest  Level Estimated
02:19AM 7.5331 -57.5051 326° Northwest  Level Estimated
02:20AM 7.6261 -57.5696 326° Northwest  Level Estimated
02:21AM 7.7192 -57.6341 326° Northwest  Level Estimated
02:22AM 7.8123 -57.6986 326° Northwest  Level Estimated
02:23AM 7.9053 -57.7632 325° Northwest  Level Estimated
02:24AM 7.9983 -57.8278 325° Northwest  Level Estimated
02:25AM 8.0913 -57.8924 325° Northwest  Level Estimated
02:26AM 8.1844 -57.9570 325° Northwest  Level Estimated
02:27AM 8.2774 -58.0217 325° Northwest  Level Estimated
02:28AM 8.3703 -58.0864 325° Northwest  Level Estimated
02:29AM 8.4633 -58.1512 325° Northwest  Level Estimated
02:30AM 8.5639 -58.2213 325° Northwest  Level Estimated
02:31AM 8.6645 -58.2914 325° Northwest  Level Estimated
02:32AM 8.7651 -58.3616 325° Northwest  Level Estimated
02:33AM 8.8657 -58.4318 325° Northwest  Level Estimated
02:34AM 8.9663 -58.5021 325° Northwest  Level Estimated
02:35AM 9.0668 -58.5724 325° Northwest  Level Estimated
02:36AM 9.1674 -58.6427 325° Northwest  Level Estimated
02:37AM 9.2679 -58.7131 325° Northwest  Level Estimated
02:38AM 9.3684 -58.7835 325° Northwest  Level Estimated
02:39AM 9.4689 -58.8540 325° Northwest  Level Estimated
02:40AM 9.5694 -58.9245 325° Northwest  Level Estimated
02:41AM 9.6699 -58.9950 325° Northwest  Level Estimated
02:42AM 9.7703 -59.0656 325° Northwest  Level Estimated
02:43AM 9.8708 -59.1362 325° Northwest  Level Estimated
02:44AM 9.9712 -59.2069 325° Northwest  Level Estimated
02:45AM 10.0716 -59.2776 325° Northwest  Level Estimated
02:46AM 10.1720 -59.3484 325° Northwest  Level Estimated
02:47AM 10.2724 -59.4192 325° Northwest  Level Estimated
02:48AM 10.3729 -59.4901 325° Northwest  Level Estimated
02:49AM 10.4733 -59.5611 325° Northwest  Level Estimated
02:50AM 10.5738 -59.6321 325° Northwest  Level Estimated
02:51AM 10.6742 -59.7031 325° Northwest  Level Estimated
02:52AM 10.7746 -59.7742 325° Northwest  Level Estimated
02:53AM 10.8750 -59.8454 325° Northwest  Level Estimated
02:53AM 12.2780 -62.0370 325° Northwest 439 505 36,000  Level FlightAware
02:54AM 10.9754 -59.9166 325° Northwest  Level Estimated
02:55AM 12.4130 -62.1370 324° Northwest 439 505 36,000  Level FlightAware
02:55AM 12.4680 -62.1790 323° Northwest 439 505 36,000  Level FlightAware
02:56AM 12.5520 -62.2430 323° Northwest 438 504 36,000  Level FlightAware
02:57AM 12.6130 -62.2880 324° Northwest 437 503 36,000  Level FlightAware
02:57AM 12.6730 -62.3340 323° Northwest 434 499 36,000  Level FlightAware
02:58AM 12.7560 -62.3970 323° Northwest 433 498 36,000  Level FlightAware
02:59AM 12.8070 -62.4360 323° Northwest 431 496 36,000  Level FlightAware
03:00AM 12.9080 -62.5130 323° Northwest 431 496 36,000  Level FlightAware
03:01AM 12.9690 -62.5590 324° Northwest 431 496 36,000  Level FlightAware
03:02AM 13.0720 -62.6370 324° Northwest 432 497 36,000  Level FlightAware
03:02AM 13.1460 -62.6930 324° Northwest 434 499 36,000  Level FlightAware
03:03AM 13.2110 -62.7420 324° Northwest 434 499 36,000  Level FlightAware
03:04AM 13.2750 -62.7910 323° Northwest 435 501 36,000  Level FlightAware
03:04AM 13.3460 -62.8450 323° Northwest 437 503 36,000  Level FlightAware
03:05AM 13.4040 -62.8900 323° Northwest 437 503 36,000  Level FlightAware
03:06AM 13.4790 -62.9470 324° Northwest 437 503 36,000  Level FlightAware
03:07AM 13.5520 -63.0020 324° Northwest 437 503 36,000  Level FlightAware
03:07AM 13.6130 -63.0480 324° Northwest 437 503 36,000  Level FlightAware
03:08AM 13.6900 -63.1070 323° Northwest 436 502 36,000  Level FlightAware
03:09AM 13.7470 -63.1510 323° Northwest 436 502 36,000  Level FlightAware
03:09AM 13.8210 -63.2070 324° Northwest 434 499 36,000  Level FlightAware
03:10AM 13.8930 -63.2610 324° Northwest 433 498 36,000  Level FlightAware
03:11AM 13.9580 -63.3110 323° Northwest 432 497 36,000  Level FlightAware
03:11AM 14.0190 -63.3580 323° Northwest 432 497 36,000  Level FlightAware
03:12AM 14.0900 -63.4120 324° Northwest 432 497 36,000  Level FlightAware
03:13AM 14.1510 -63.4580 324° Northwest 431 496 36,000  Level FlightAware
03:14AM 14.2310 -63.5190 324° Northwest 430 495 36,000  Level FlightAware
03:14AM 14.2950 -63.5680 323° Northwest 430 495 36,000  Level FlightAware
03:15AM 14.3580 -63.6150 324° Northwest 429 494 36,000  Level FlightAware
03:16AM 14.4270 -63.6680 323° Northwest 428 493 36,000  Level FlightAware
03:17AM 14.5420 -63.7570 323° Northwest 425 489 36,000  Level FlightAware
03:17AM 14.5920 -63.7960 323° Northwest 425 489 36,000  Level FlightAware
03:18AM 14.6880 -63.8680 324° Northwest 425 489 36,000  Level FlightAware
03:19AM 14.6880 -63.8680 324° Northwest 426 490 36,000  Level FlightAware
03:20AM 14.8180 -63.9680 323° Northwest 426 490 36,000  Level FlightAware
03:20AM 14.8840 -64.0190 323° Northwest 425 489 36,000  Level FlightAware
03:21AM 14.9480 -64.0680 324° Northwest 425 489 36,000  Level FlightAware
03:22AM 15.0330 -64.1330 324° Northwest 427 491 36,000  Level FlightAware
03:23AM 15.1010 -64.1780 327° Northwest 428 493 36,000  Level FlightAware
03:24AM 15.1710 -64.2250 327° Northwest 428 493 36,000  Level FlightAware
03:24AM 15.2280 -64.2630 327° Northwest 428 493 36,000  Level FlightAware
03:25AM 15.2840 -64.3010 327° Northwest 428 493 36,000  Level FlightAware
03:26AM 15.3550 -64.3490 327° Northwest 428 493 36,000  Level FlightAware
03:26AM 15.4110 -64.3870 327° Northwest 428 493 36,000  Level FlightAware
03:27AM 15.4680 -64.4250 327° Northwest 428 493 36,000  Level FlightAware
03:28AM 15.5240 -64.4630 327° Northwest 428 493 36,000  Level FlightAware
03:28AM 15.5810 -64.5010 327° Northwest 428 493 36,000  Level FlightAware
03:29AM 15.6510 -64.5490 327° Northwest 428 493 36,000  Level FlightAware
03:30AM 15.7080 -64.5870 327° Northwest 428 493 36,000  Level FlightAware
03:31AM 15.7640 -64.6250 327° Northwest 428 493 36,000  Level FlightAware
03:31AM 15.8210 -64.6630 327° Northwest 428 493 36,000  Level FlightAware
03:32AM 15.8770 -64.7010 327° Northwest 428 493 36,000  Level FlightAware
03:32AM 16.0333 -64.8167 327° Northwest 450 518 36,000  Level San Juan Center
03:33AM 16.1167 -64.8833 322° Northwest 440 506 36,000  Level San Juan Center
03:34AM 16.2333 -64.9500 331° Northwest 430 495 36,000  Level San Juan Center
03:36AM 16.4333 -65.0833 327° Northwest 440 506 36,000  Level San Juan Center
03:37AM 16.5333 -65.1500 327° Northwest 430 495 36,000  Level San Juan Center
03:38AM 16.6333 -65.2167 327° Northwest 430 495 36,000  Level San Juan Center
03:43AM 17.2130 -65.5720 327° Northwest 429 494 36,000  Level FlightAware
03:44AM 17.2790 -65.6160 328° Northwest 429 494 36,000  Level FlightAware
03:45AM 17.3560 -65.6680 327° Northwest 429 494 36,000  Level FlightAware
03:45AM 17.4230 -65.7140 327° Northwest 427 491 36,000  Level FlightAware
03:46AM 17.4970 -65.7640 327° Northwest 427 491 36,000  Level FlightAware
03:47AM 17.5630 -65.8100 326° Northwest 427 491 36,000  Level FlightAware
03:48AM 17.6300 -65.8550 327° Northwest 425 489 36,000  Level FlightAware
03:48AM 17.7030 -65.9050 327° Northwest 425 489 36,000  Level FlightAware
03:49AM 17.7690 -65.9510 326° Northwest 425 489 36,000  Level FlightAware
03:50AM 17.8460 -66.0030 327° Northwest 425 489 36,000  Level FlightAware
03:50AM 17.9110 -66.0480 327° Northwest 424 488 36,000  Level FlightAware
03:51AM 17.9780 -66.0930 327° Northwest 425 489 36,000  Level FlightAware
03:52AM 18.0510 -66.1430 327° Northwest 426 490 36,000  Level FlightAware
03:52AM 18.1160 -66.1880 327° Northwest 427 491 36,000  Level FlightAware
03:53AM 18.1920 -66.2410 326° Northwest 427 491 36,000  Level FlightAware
03:54AM 18.2590 -66.2870 327° Northwest 427 491 36,000  Level FlightAware
03:55AM 18.3240 -66.3330 326° Northwest 427 491 36,000  Level FlightAware
03:55AM 18.3970 -66.3840 326° Northwest 427 491 36,000  Level FlightAware
03:56AM 18.4630 -66.4320 325° Northwest 427 491 36,000  Level FlightAware
03:57AM 18.5350 -66.4830 326° Northwest 427 491 36,000  Level FlightAware
03:57AM 18.6040 -66.5320 326° Northwest 428 493 36,000  Level FlightAware
03:58AM 18.6770 -66.5830 327° Northwest 427 491 36,000  Level FlightAware
03:59AM 18.7370 -66.6240 327° Northwest 425 489 36,000  Level FlightAware
03:59AM 18.8080 -66.6730 327° Northwest 425 489 36,000  Level FlightAware
04:00AM 18.8840 -66.7270 326° Northwest 425 489 36,000  Level FlightAware
04:01AM 18.9500 -66.7720 327° Northwest 424 488 36,000  Level FlightAware
04:02AM 19.0160 -66.8190 326° Northwest 425 489 36,000  Level FlightAware
04:02AM 19.0880 -66.8690 327° Northwest 426 490 36,000  Level FlightAware
04:03AM 19.1550 -66.9160 326° Northwest 426 490 36,000  Level FlightAware
04:04AM 19.2300 -66.9680 327° Northwest 425 489 36,000  Level FlightAware
04:04AM 19.2950 -67.0130 327° Northwest 425 489 36,000  Level FlightAware
04:05AM 19.3610 -67.0600 326° Northwest 424 488 36,000  Level FlightAware
04:06AM 19.4350 -67.1110 327° Northwest 425 489 36,000  Level FlightAware
04:06AM 19.4990 -67.1560 326° Northwest 425 489 36,000  Level FlightAware
04:07AM 19.5760 -67.2090 327° Northwest 425 489 36,000  Level FlightAware
04:08AM 19.6420 -67.2560 326° Northwest 425 489 36,000  Level FlightAware
04:09AM 19.7070 -67.3010 327° Northwest 425 489 36,000  Level FlightAware
04:09AM 19.7800 -67.3520 327° Northwest 424 488 36,000  Level FlightAware
04:10AM 19.8450 -67.3970 327° Northwest 424 488 36,000  Level FlightAware
04:11AM 19.9120 -67.4440 327° Northwest 424 488 36,000  Level FlightAware
04:11AM 19.9870 -67.4960 327° Northwest 423 487 36,000  Level FlightAware
04:12AM 20.0530 -67.5430 326° Northwest 423 487 36,000  Level FlightAware
04:13AM 20.1080 -67.5820 326° Northwest 423 487 36,000  Level FlightAware
04:13AM 20.1900 -67.6390 327° Northwest 422 486 36,000  Level FlightAware
04:14AM 20.2570 -67.6870 326° Northwest 422 486 36,000  Level FlightAware
04:15AM 20.3120 -67.7270 326° Northwest 422 486 36,000  Level FlightAware
04:16AM 20.3670 -67.7660 326° Northwest 422 486 36,000  Level FlightAware
04:16AM 20.4670 -67.8350 327° Northwest 422 486 36,000  Level FlightAware
04:17AM 20.5250 -67.8770 326° Northwest 422 486 36,000  Level FlightAware
04:18AM 20.5800 -67.9160 326° Northwest 422 486 36,000  Level FlightAware
04:18AM 20.6350 -67.9560 326° Northwest 422 486 36,000  Level FlightAware
04:19AM 20.7040 -68.0050 326° Northwest 422 486 36,000  Level FlightAware
04:20AM 20.7590 -68.0450 326° Northwest 422 486 36,000  Level FlightAware
04:20AM 20.8140 -68.0850 326° Northwest 422 486 36,000  Level FlightAware
04:21AM 20.8690 -68.1250 326° Northwest 422 486 36,000  Level FlightAware
04:22AM 20.9240 -68.1640 326° Northwest 422 486 36,000  Level FlightAware
04:23AM 20.9930 -68.2140 326° Northwest 422 486 36,000  Level FlightAware
04:23AM 21.0480 -68.2540 326° Northwest 422 486 36,000  Level FlightAware
04:24AM 21.1030 -68.2930 327° Northwest 422 486 36,000  Level FlightAware
04:25AM 21.1580 -68.3330 326° Northwest 422 486 36,000  Level FlightAware
04:25AM 21.2270 -68.3830 326° Northwest 422 486 36,000  Level FlightAware
04:26AM 21.2820 -68.4230 326° Northwest 422 486 36,000  Level FlightAware
04:27AM 21.4050 -68.6494 326° Northwest 428 493 36,000  Level Miami Center
04:28AM 21.4992 -68.7325 321° Northwest 428 493 36,000  Level Miami Center
04:29AM 21.5889 -68.8142 320° Northwest 423 487 36,000  Level Miami Center
04:30AM 21.6786 -68.8978 319° Northwest 423 487 36,000  Level Miami Center
04:31AM 21.7683 -68.9817 319° Northwest 423 487 36,000  Level Miami Center
04:32AM 21.8683 -69.0650 322° Northwest 428 493 36,000  Level Miami Center
04:33AM 21.9517 -69.1428 319° Northwest 421 484 36,000  Level Miami Center
04:34AM 22.0497 -69.2286 321° Northwest 428 493 36,000  Level Miami Center
04:35AM 22.1414 -69.3106 320° Northwest 428 493 36,000  Level Miami Center
04:36AM 22.2267 -69.3931 318° Northwest 423 487 36,000  Level Miami Center
04:37AM 22.3203 -69.4728 322° Northwest 423 487 36,000  Level Miami Center
04:38AM 22.4142 -69.5617 319° Northwest 423 487 36,000  Level Miami Center
04:39AM 22.5036 -69.6419 320° Northwest 423 487 36,000  Level Miami Center
04:40AM 22.5908 -69.7247 319° Northwest 423 487 36,000  Level Miami Center
04:41AM 22.6844 -69.8050 322° Northwest 423 487 36,000  Level Miami Center
04:42AM 22.7736 -69.8881 319° Northwest 423 487 36,000  Level Miami Center
04:43AM 22.8631 -69.9731 319° Northwest 423 487 36,000  Level Miami Center
04:44AM 22.9544 -70.0539 321° Northwest 423 487 36,000  Level Miami Center
04:45AM 23.0439 -70.1414 318° Northwest 423 487 36,000  Level Miami Center
04:46AM 23.1308 -70.2181 321° Northwest 423 487 36,000  Level Miami Center
04:47AM 23.2219 -70.3036 319° Northwest 417 480 36,000  Level Miami Center
04:48AM 23.3114 -70.3894 319° Northwest 425 489 36,000  Level Miami Center
04:49AM 23.4006 -70.4731 319° Northwest 425 489 36,000  Level Miami Center
04:50AM 23.4894 -70.5547 320° Northwest 420 483 36,000  Level Miami Center
04:51AM 23.5783 -70.6339 321° Northwest 420 483 36,000  Level Miami Center
04:52AM 23.6675 -70.7203 318° Northwest 420 483 36,000  Level Miami Center
04:53AM 23.7544 -70.8044 318° Northwest 420 483 36,000  Level Miami Center
04:54AM 23.8411 -70.8864 319° Northwest 420 483 36,000  Level Miami Center
04:55AM 23.9303 -70.9731 318° Northwest 420 483 36,000  Level Miami Center
04:56AM 24.0169 -71.0531 320° Northwest 420 483 36,000  Level Miami Center
04:57AM 24.1036 -71.1378 318° Northwest 420 483 36,000  Level Miami Center
04:58AM 24.1922 -71.2156 321° Northwest 420 483 36,000  Level Miami Center
04:59AM 24.2811 -71.3028 318° Northwest 419 482 36,000  Level Miami Center
05:00AM 24.3697 -71.3875 319° Northwest 419 482 36,000  Level Miami Center
05:01AM 24.4561 -71.4658 320° Northwest 419 482 36,000  Level Miami Center
05:02AM 24.5408 -71.5536 317° Northwest 419 482 36,000  Level Miami Center
05:03AM 24.6275 -71.6411 317° Northwest 414 476 36,000  Level Miami Center
05:04AM 24.7139 -71.7219 320° Northwest 414 476 36,000  Level Miami Center
05:05AM 24.8003 -71.8078 318° Northwest 414 476 36,000  Level Miami Center
05:06AM 24.8886 -71.8842 322° Northwest 409 471 36,000  Level Miami Center
05:07AM 24.9644 -71.9703 314° West 401 461 36,000  Level Miami Center
05:08AM 25.0733 -72.0417 329° Northwest 348 400 36,000  Level Miami Center
05:09AM 25.0000 -72.0000 330° Northwest 422 486 36,000  Level New York Oceanic (ODAPS)
05:16AM 25.9172 -72.5833 330° Northwest 422 486 36,000  Level FlightAware Transoceanic
05:17AM 26.0189 -72.6487 330° Northwest 422 486 36,000  Level FlightAware Transoceanic
05:18AM 26.1207 -72.7141 330° Northwest 422 486 36,000  Level FlightAware Transoceanic
05:19AM 26.2224 -72.7797 330° Northwest 422 486 36,000  Level FlightAware Transoceanic
05:20AM 26.3241 -72.8455 330° Northwest 422 486 36,000  Level FlightAware Transoceanic
05:21AM 26.4257 -72.9113 330° Northwest 422 486 36,000  Level FlightAware Transoceanic
05:22AM 26.5273 -72.9772 330° Northwest 422 486 36,000  Level FlightAware Transoceanic
05:23AM 26.6289 -73.0433 330° Northwest 422 486 36,000  Level FlightAware Transoceanic
05:24AM 26.7305 -73.1095 330° Northwest 422 486 36,000  Level FlightAware Transoceanic
05:25AM 26.8320 -73.1758 330° Northwest 422 486 36,000  Level FlightAware Transoceanic
05:26AM 26.9335 -73.2422 330° Northwest 422 486 36,000  Level FlightAware Transoceanic
05:27AM 27.0350 -73.3087 330° Northwest 422 486 36,000  Level FlightAware Transoceanic
05:28AM 27.1364 -73.3754 330° Northwest 422 486 36,000  Level FlightAware Transoceanic
05:29AM 27.2378 -73.4421 330° Northwest 422 486 36,000  Level FlightAware Transoceanic
05:30AM 27.3391 -73.5090 330° Northwest 422 486 36,000  Level FlightAware Transoceanic
05:31AM 27.4405 -73.5760 330° Northwest 422 486 36,000  Level FlightAware Transoceanic
05:32AM 27.5418 -73.6432 330° Northwest 422 486 36,000  Level FlightAware Transoceanic
05:33AM 27.6431 -73.7104 330° Northwest 422 486 36,000  Level FlightAware Transoceanic
05:34AM 27.7443 -73.7778 329° Northwest 422 486 36,000  Level FlightAware Transoceanic
05:35AM 27.8455 -73.8453 329° Northwest 422 486 36,000  Level FlightAware Transoceanic
05:36AM 27.9467 -73.9130 329° Northwest 422 486 36,000  Level FlightAware Transoceanic
05:37AM 28.0478 -73.9808 329° Northwest 422 486 36,000  Level FlightAware Transoceanic
05:38AM 28.1489 -74.0486 329° Northwest 422 486 36,000  Level FlightAware Transoceanic
05:39AM 28.2500 -74.1167 322° Northwest 422 486 36,000  Level FlightAware Transoceanic
05:40AM 28.3369 -74.1944 322° Northwest 422 486 36,000  Level FlightAware Transoceanic
05:41AM 28.4238 -74.2723 322° Northwest 422 486 36,000  Level FlightAware Transoceanic
05:42AM 28.5107 -74.3503 322° Northwest 422 486 36,000  Level FlightAware Transoceanic
05:43AM 28.5975 -74.4284 322° Northwest 422 486 36,000  Level FlightAware Transoceanic
05:44AM 28.6842 -74.5067 322° Northwest 422 486 36,000  Level FlightAware Transoceanic
05:45AM 28.7709 -74.5850 322° Northwest 422 486 36,000  Level FlightAware Transoceanic
05:46AM 28.8576 -74.6636 322° Northwest 422 486 36,000  Level FlightAware Transoceanic
05:47AM 28.9442 -74.7422 322° Northwest 422 486 36,000  Level FlightAware Transoceanic
05:48AM 29.0308 -74.8210 321° Northwest 422 486 36,000  Level FlightAware Transoceanic
05:49AM 29.1173 -74.8999 321° Northwest 422 486 36,000  Level FlightAware Transoceanic
05:50AM 29.2038 -74.9789 321° Northwest 422 486 36,000  Level FlightAware Transoceanic
05:51AM 29.2902 -75.0581 321° Northwest 422 486 36,000  Level FlightAware Transoceanic
05:52AM 29.3766 -75.1374 321° Northwest 422 486 36,000  Level FlightAware Transoceanic
05:53AM 29.4629 -75.2169 321° Northwest 422 486 36,000  Level FlightAware Transoceanic
05:54AM 29.5492 -75.2964 321° Northwest 422 486 36,000  Level FlightAware Transoceanic
05:54AM 28.2500 -74.1167 322° Northwest 349 402 36,000  Level New York Oceanic (ODAPS)
05:55AM 29.6355 -75.3762 321° Northwest 422 486 36,000  Level FlightAware Transoceanic
05:56AM 29.7217 -75.4560 321° Northwest 422 486 36,000  Level FlightAware Transoceanic
05:57AM 29.8078 -75.5360 321° Northwest 422 486 36,000  Level FlightAware Transoceanic
05:58AM 29.8939 -75.6161 321° Northwest 422 486 36,000  Level FlightAware Transoceanic
05:59AM 29.9800 -75.6964 321° Northwest 422 486 36,000  Level FlightAware Transoceanic
06:00AM 29.7700 -75.5008 321° Northwest 349 402 36,000  Level FlightAware Transoceanic
06:01AM 29.8456 -75.5712 321° Northwest 349 402 36,000  Level FlightAware Transoceanic
06:02AM 29.9212 -75.6415 321° Northwest 349 402 36,000  Level FlightAware Transoceanic
06:03AM 29.9968 -75.7121 321° Northwest 349 402 36,000  Level FlightAware Transoceanic
06:04AM 30.0723 -75.7827 321° Northwest 349 402 36,000  Level FlightAware Transoceanic
06:05AM 30.1477 -75.8534 321° Northwest 349 402 36,000  Level FlightAware Transoceanic
06:06AM 30.2232 -75.9242 321° Northwest 349 402 36,000  Level FlightAware Transoceanic
06:07AM 30.2986 -75.9952 321° Northwest 349 402 36,000  Level FlightAware Transoceanic
06:08AM 30.3739 -76.0662 321° Northwest 349 402 36,000  Level FlightAware Transoceanic
06:09AM 30.4492 -76.1374 321° Northwest 349 402 36,000  Level FlightAware Transoceanic
06:10AM 30.5245 -76.2086 321° Northwest 349 402 36,000  Level FlightAware Transoceanic
06:10AM 30.8272 -76.4828 321° Northwest 461 531 36,000  Level Jacksonville Center
06:11AM 30.5998 -76.2800 321° Northwest 349 402 36,000  Level FlightAware Transoceanic
06:11AM 30.9106 -76.5642 320° Northwest 421 484 36,000  Level Jacksonville Center
06:12AM 30.6750 -76.3515 321° Northwest 349 402 36,000  Level FlightAware Transoceanic
06:12AM 30.9936 -76.6386 322° Northwest 394 453 36,000  Level Jacksonville Center
06:13AM 30.7501 -76.4231 321° Northwest 349 402 36,000  Level FlightAware Transoceanic
06:13AM 31.0792 -76.7228 320° Northwest 388 447 36,000  Level Jacksonville Center
06:14AM 30.8253 -76.4948 321° Northwest 349 402 36,000  Level FlightAware Transoceanic
06:14AM 31.1603 -76.8047 319° Northwest 388 447 36,000  Level Jacksonville Center
06:15AM 31.2414 -76.8869 319° Northwest 388 447 36,000  Level Jacksonville Center
06:16AM 31.3244 -76.9617 322° Northwest 388 447 36,000  Level Jacksonville Center
06:17AM 31.4072 -77.0417 320° Northwest 383 441 36,000  Level Jacksonville Center
06:18AM 31.4900 -77.1167 322° Northwest 383 441 36,000  Level Jacksonville Center
06:19AM 31.5731 -77.1969 321° Northwest 383 441 36,000  Level Jacksonville Center
06:20AM 31.6575 -77.2675 325° Northwest 378 435 36,000  Level Jacksonville Center
06:21AM 31.7364 -77.3531 317° Northwest 372 428 36,000  Level Jacksonville Center
06:22AM 31.8192 -77.4336 320° Northwest 372 428 36,000  Level Jacksonville Center
06:23AM 31.8931 -77.5000 323° Northwest 372 428 36,000  Level Jacksonville Center
06:24AM 31.9758 -77.5808 320° Northwest 377 434 36,000  Level Jacksonville Center
06:29AM 32.3560 -78.0710 320° Northwest 380 437 36,000  Level FlightAware
06:30AM 32.3790 -78.1480 289° West 380 437 36,000  Level FlightAware
06:31AM 32.4060 -78.2360 290° West 380 437 36,000  Level FlightAware
06:31AM 32.4300 -78.3160 290° West 378 435 36,000 -540 Level FlightAware
06:32AM 32.4560 -78.4030 290° West 376 433 35,300 -1,080 Descending FlightAware
06:33AM 32.4790 -78.4790 290° West 380 437 34,500 -1,380 Descending FlightAware
06:34AM 32.5070 -78.5700 290° West 387 445 33,400 -1,500 Descending FlightAware
06:34AM 32.5310 -78.6490 290° West 395 455 32,400 -1,500 Descending FlightAware
06:35AM 32.5580 -78.7430 289° West 402 463 31,300 -1,020 Descending FlightAware
06:36AM 32.5820 -78.8250 289° West 396 456 31,000 -240 Descending FlightAware
06:36AM 32.6060 -78.9060 289° West 394 453 31,000  Level FlightAware
06:37AM 32.6340 -79.0000 290° West 398 458 31,000  Level FlightAware
06:38AM 32.6590 -79.0830 290° West 401 461 31,000  Level FlightAware
06:38AM 32.6900 -79.1760 292° West 405 466 31,000  Level FlightAware
06:39AM 32.7420 -79.2390 314° West 414 476 31,000  Level FlightAware
06:40AM 32.8130 -79.2750 337° Northwest 421 484 31,000  Level FlightAware
06:41AM 32.8940 -79.3120 339° North 421 484 31,000  Level FlightAware
06:41AM 32.9650 -79.3440 339° North 420 483 31,000  Level FlightAware
06:42AM 33.0500 -79.3820 339° North 420 483 31,000  Level FlightAware
06:43AM 33.1220 -79.4150 339° North 419 482 31,000  Level FlightAware
06:43AM 33.1950 -79.4480 339° North 417 480 31,000  Level FlightAware
06:44AM 33.2760 -79.4850 339° North 415 478 31,000  Level FlightAware
06:45AM 33.3460 -79.5170 339° North 413 475 31,000  Level FlightAware
06:45AM 33.4290 -79.5550 339° North 412 474 31,000  Level FlightAware
06:46AM 33.5000 -79.5890 338° Northwest 412 474 31,000 -540 Level FlightAware
06:47AM 33.5690 -79.6210 339° North 406 467 30,300 -2,160 Descending FlightAware
06:48AM 33.6490 -79.6570 339° North 404 465 28,000 -3,000 Descending FlightAware
06:48AM 33.7260 -79.6930 339° North 395 455 25,800 -2,760 Descending FlightAware
06:49AM 33.7940 -79.7240 339° North 381 438 24,100 -1,920 Descending FlightAware
06:50AM 33.8660 -79.7570 339° North 359 413 23,100 -1,320 Descending FlightAware
06:50AM 33.9190 -79.7810 339° North 352 405 22,400 -1,200 Descending FlightAware
06:51AM 33.9880 -79.8130 339° North 351 404 21,500 -1,140 Descending FlightAware
06:52AM 34.0550 -79.8450 338° Northwest 352 405 20,700 -1,140 Descending FlightAware
06:52AM 34.1140 -79.8740 338° Northwest 348 400 19,900 -1,200 Descending FlightAware
06:53AM 34.1670 -79.9080 332° Northwest 341 392 19,100 -1,320 Descending FlightAware
06:54AM 34.2210 -79.9450 330° Northwest 342 394 18,300 -1,500 Descending FlightAware
06:55AM 34.2920 -79.9920 331° Northwest 342 394 17,000 -1,380 Descending FlightAware
06:55AM 34.3530 -80.0320 332° Northwest 342 394 16,200 -1,140 Descending FlightAware
06:56AM 34.4090 -80.0700 331° Northwest 339 390 15,400 -1,200 Descending FlightAware
06:57AM 34.4700 -80.1100 332° Northwest 333 383 14,500 -1,140 Descending FlightAware
06:57AM 34.5250 -80.1460 332° Northwest 330 380 13,800 -1,140 Descending FlightAware
06:58AM 34.5790 -80.1820 331° Northwest 330 380 13,000 -1,140 Descending FlightAware
06:59AM 34.6280 -80.2140 332° Northwest 326 375 12,300 -1,140 Descending FlightAware
06:59AM 34.6780 -80.2480 331° Northwest 314 361 11,600 -1,080 Descending FlightAware
07:00AM 34.7270 -80.3020 318° Northwest 285 328 10,800 -600 Descending FlightAware
07:01AM 34.7570 -80.3400 314° West 285 328 10,800 -540 Level FlightAware
07:02AM 34.8010 -80.3970 313° West 265 305 10,100 -480 Descending FlightAware
07:02AM 34.8290 -80.4340 313° West 265 305 10,100  Level FlightAware
07:03AM 34.8580 -80.4710 314° West 265 305 10,100 -2,280 Level FlightAware
07:04AM 34.9090 -80.5360 314° West 247 284 6,500 -2,700 Descending FlightAware
07:04AM 34.9260 -80.5650 306° West 247 284 6,500 -540 Level FlightAware
07:05AM 34.9158 -80.6369 306° West 249 287 6,000 -300 Descending Atlanta Center
07:06AM 34.9594 -80.7086 307° West 248 285 6,000 -600 Level Atlanta Center
07:07AM 34.9967 -80.7706 306° West 246 283 4,900 -1,020 Descending Atlanta Center
07:08AM 35.0383 -80.8525 302° West 246 283 4,000 -720 Descending Atlanta Center
07:09AM 35.0839 -80.9142 312° West 196 226 3,300 -780 Descending Atlanta Center
07:10AM 35.1303 -80.9303 344° North 134 154 2,300 -900 Descending Atlanta Center